Time;durP1;ratioP1;P1;durP2;ratioP2;P2;SDS_P1;SDS_P2;PMS_P1;PMS_P2;Temp;Humidity;BMP_temperature;BMP_pressure;BME280_temperature;BME280_humidity;BME280_pressure;Samples;Min_cycle;Max_cycle;Signal;HPM_P1;HPM_P2
2023/05/24 00:02:14;;;;;;;9.70;3.67;;;;;;;11.25;71.49;101148.00;5078481;28;20245;-72
2023/05/24 00:04:43;;;;;;;7.97;3.37;;;;;;;11.22;71.20;101151.25;5072092;28;20208;-72
2023/05/24 00:07:10;;;;;;;5.50;2.73;;;;;;;11.20;70.92;101157.94;5073710;28;20348;-72
2023/05/24 00:09:36;;;;;;;8.53;3.37;;;;;;;11.16;72.52;101157.03;5078928;28;20203;-72
2023/05/24 00:12:03;;;;;;;8.17;3.60;;;;;;;11.14;71.90;101153.94;5070848;28;20642;-72
2023/05/24 00:14:29;;;;;;;9.20;3.60;;;;;;;11.09;73.41;101159.38;5072189;28;20213;-72
2023/05/24 00:16:55;;;;;;;15.03;4.13;;;;;;;11.05;71.52;101156.59;5068135;28;20203;-73
2023/05/24 00:19:22;;;;;;;9.70;3.47;;;;;;;11.03;72.50;101164.03;5068487;28;20207;-72
2023/05/24 00:21:49;;;;;;;16.93;4.17;;;;;;;11.01;72.21;101168.88;5073002;28;20237;-72
2023/05/24 00:24:16;;;;;;;7.97;3.83;;;;;;;10.96;71.98;101165.59;5072155;28;20198;-72
2023/05/24 00:26:43;;;;;;;8.80;3.80;;;;;;;10.95;73.11;101174.63;5074166;28;20232;-72
2023/05/24 00:29:10;;;;;;;8.50;3.70;;;;;;;10.92;72.02;101170.75;5067035;28;20197;-72
2023/05/24 00:31:38;;;;;;;10.67;4.17;;;;;;;10.88;72.54;101164.53;5050685;28;20597;-72
2023/05/24 00:34:04;;;;;;;8.37;4.00;;;;;;;10.86;73.50;101165.94;5070322;28;20281;-73
2023/05/24 00:36:31;;;;;;;7.67;4.00;;;;;;;10.82;73.45;101167.66;5068568;28;20222;-73
2023/05/24 00:38:59;;;;;;;6.40;3.57;;;;;;;10.79;73.73;101179.63;5067268;28;20213;-72
2023/05/24 00:41:26;;;;;;;8.80;4.30;;;;;;;10.75;72.74;101175.25;5054427;28;20224;-73
2023/05/24 00:43:52;;;;;;;11.57;4.17;;;;;;;10.72;73.71;101171.38;5051909;28;20644;-73
2023/05/24 00:46:22;;;;;;;7.53;3.70;;;;;;;10.68;73.35;101169.69;5052796;28;20206;-73
2023/05/24 00:48:48;;;;;;;9.10;4.17;;;;;;;10.62;73.49;101179.59;5070141;28;20208;-73
2023/05/24 00:51:15;;;;;;;8.90;4.43;;;;;;;10.60;74.00;101176.50;5052813;28;20221;-72
2023/05/24 00:53:44;;;;;;;7.87;3.93;;;;;;;10.58;73.67;101170.00;5072107;28;20220;-72
2023/05/24 00:56:13;;;;;;;11.40;4.30;;;;;;;10.56;74.10;101180.84;5053818;28;20247;-72
2023/05/24 00:58:40;;;;;;;10.73;4.40;;;;;;;10.53;74.66;101180.72;5067519;28;20674;-72
2023/05/24 01:01:07;;;;;;;15.73;4.63;;;;;;;10.50;73.55;101176.06;5050643;28;20221;-72
2023/05/24 01:03:34;;;;;;;10.47;4.60;;;;;;;10.47;73.58;101181.94;5063235;28;20592;-73
2023/05/24 01:06:03;;;;;;;8.93;4.70;;;;;;;10.43;73.57;101181.00;5070860;28;20198;-73
2023/05/24 01:09:02;;;;;;;13.30;4.20;;;;;;;10.42;73.54;101184.75;5067546;28;20184;-72
2023/05/24 01:11:42;;;;;;;11.97;4.10;;;;;;;10.39;73.54;101188.78;5064870;28;20311;-72
2023/05/24 01:14:19;;;;;;;11.60;4.20;;;;;;;10.36;73.50;101184.09;5052152;28;20253;-72
2023/05/24 01:16:56;;;;;;;12.93;4.27;;;;;;;10.33;73.92;101187.38;5054346;28;20577;-73
2023/05/24 01:19:47;;;;;;;16.30;4.37;;;;;;;10.31;73.17;101196.69;5046882;28;20204;-73
2023/05/24 01:22:38;;;;;;;9.67;4.07;;;;;;;10.29;72.90;101191.69;5048654;28;20220;-73
2023/05/24 01:25:12;;;;;;;14.77;4.57;;;;;;;10.27;73.46;101196.53;5044577;28;20650;-73
2023/05/24 01:27:40;;;;;;;12.33;3.53;;;;;;;10.24;72.63;101199.78;5059386;28;20218;-73
2023/05/24 01:30:09;;;;;;;15.80;4.00;;;;;;;10.22;73.22;101201.16;5071157;28;20346;-73
2023/05/24 01:32:35;;;;;;;8.73;3.60;;;;;;;10.21;72.50;101195.13;5070972;28;20187;-73
2023/05/24 01:35:02;;;;;;;9.80;3.83;;;;;;;10.20;73.75;101198.81;5067189;28;20286;-73
2023/05/24 01:37:28;;;;;;;7.50;3.37;;;;;;;10.17;73.40;101194.19;5045942;28;20229;-72
2023/05/24 01:39:55;;;;;;;8.87;3.47;;;;;;;10.15;73.12;101195.56;5041632;28;20288;-72
2023/05/24 01:42:27;;;;;;;11.17;3.97;;;;;;;10.13;72.14;101195.88;5071953;28;20299;-72
2023/05/24 01:45:04;;;;;;;13.00;3.97;;;;;;;10.12;72.88;101191.69;5082156;28;20225;-72
2023/05/24 01:47:52;;;;;;;12.53;3.57;;;;;;;10.10;72.96;101193.06;5066355;28;20257;-72
2023/05/24 01:50:24;;;;;;;14.70;4.17;;;;;;;10.08;73.17;101201.28;5051273;28;20192;-72
2023/05/24 01:52:52;;;;;;;12.97;3.80;;;;;;;10.06;72.83;101192.13;5047678;28;20211;-72
2023/05/24 01:55:18;;;;;;;9.37;3.17;;;;;;;10.04;72.47;101196.94;5052788;28;20204;-72
2023/05/24 01:57:48;;;;;;;9.70;3.63;;;;;;;10.01;72.98;101198.28;5069393;28;20192;-72
2023/05/24 02:00:19;;;;;;;7.53;3.20;;;;;;;10.00;72.97;101188.03;5053885;28;20202;-72
2023/05/24 02:02:45;;;;;;;11.63;3.43;;;;;;;9.97;72.04;101189.44;5066621;28;20303;-71
2023/05/24 02:05:12;;;;;;;10.50;3.30;;;;;;;9.97;72.74;101193.91;5050660;28;20203;-72
2023/05/24 02:07:40;;;;;;;10.07;2.80;;;;;;;9.92;72.15;101191.41;5053243;28;20203;-72
2023/05/24 02:10:07;;;;;;;7.23;3.00;;;;;;;9.93;72.77;101188.47;5064389;28;20203;-72
2023/05/24 02:12:33;;;;;;;7.63;3.37;;;;;;;9.92;72.62;101194.06;5051237;28;20230;-72
2023/05/24 02:15:00;;;;;;;7.90;3.23;;;;;;;9.90;73.00;101197.03;5052623;28;20239;-72
2023/05/24 02:17:31;;;;;;;13.70;3.40;;;;;;;9.88;73.12;101196.53;5051959;28;20336;-72
2023/05/24 02:20:00;;;;;;;8.20;2.87;;;;;;;9.86;73.44;101196.06;5052236;28;20198;-72
2023/05/24 02:22:27;;;;;;;13.57;3.23;;;;;;;9.84;73.30;101200.84;5069833;28;20301;-72
2023/05/24 02:24:54;;;;;;;8.43;2.93;;;;;;;9.83;72.20;101198.53;5070460;28;20195;-72
2023/05/24 02:27:20;;;;;;;13.87;3.57;;;;;;;9.79;72.63;101190.44;5072316;28;20590;-72
2023/05/24 02:29:47;;;;;;;11.07;3.23;;;;;;;9.79;72.88;101193.06;5074492;28;20194;-72
2023/05/24 02:32:13;;;;;;;9.07;3.07;;;;;;;9.79;73.25;101192.31;5047111;28;20268;-72
2023/05/24 02:34:42;;;;;;;10.40;3.47;;;;;;;9.76;72.28;101193.69;5052226;28;20286;-72
2023/05/24 02:37:09;;;;;;;9.47;3.43;;;;;;;9.75;72.93;101192.16;5067854;28;20228;-72
2023/05/24 02:39:35;;;;;;;8.90;2.93;;;;;;;9.75;73.13;101199.28;5056053;28;20573;-72
2023/05/24 02:42:03;;;;;;;8.50;2.83;;;;;;;9.71;73.54;101193.84;5056356;28;20220;-72
2023/05/24 02:44:29;;;;;;;15.40;3.93;;;;;;;9.70;73.38;101191.50;5056044;28;20206;-72
2023/05/24 02:46:56;;;;;;;10.57;3.93;;;;;;;9.67;72.82;101197.38;5065345;28;20225;-72
2023/05/24 02:49:22;;;;;;;8.90;3.40;;;;;;;9.64;72.16;101193.47;5075946;28;20264;-71
2023/05/24 02:51:50;;;;;;;7.60;2.97;;;;;;;9.63;72.96;101204.34;5051925;28;20280;-72
2023/05/24 02:54:17;;;;;;;8.90;3.37;;;;;;;9.61;73.35;101199.38;5063042;28;20195;-72
2023/05/24 02:56:43;;;;;;;7.30;3.33;;;;;;;9.59;73.26;101203.41;5061225;28;20269;-72
2023/05/24 02:59:11;;;;;;;10.70;3.57;;;;;;;9.57;73.96;101200.28;5074922;28;20271;-71
2023/05/24 03:01:39;;;;;;;10.27;3.57;;;;;;;9.56;73.75;101202.13;5054386;28;20738;-72
2023/05/24 03:04:05;;;;;;;12.70;3.77;;;;;;;9.56;73.72;101209.25;5053401;28;20222;-72
2023/05/24 03:06:32;;;;;;;3.33;2.60;;;;;;;9.55;74.13;101203.22;5052155;28;20237;-72
2023/05/24 03:09:00;;;;;;;12.00;2.87;;;;;;;9.55;74.20;101213.00;5062550;28;20199;-72
2023/05/24 03:11:27;;;;;;;9.67;3.67;;;;;;;9.53;73.35;101202.72;5049627;28;20211;-72
2023/05/24 03:13:53;;;;;;;12.27;3.07;;;;;;;9.54;73.34;101206.94;5055447;28;20225;-72
2023/05/24 03:16:19;;;;;;;9.83;2.70;;;;;;;9.56;73.54;101206.63;5055798;28;20570;-72
2023/05/24 03:18:49;;;;;;;13.70;3.80;;;;;;;9.56;73.34;101214.53;5076035;28;20205;-72
2023/05/24 03:21:15;;;;;;;9.83;3.50;;;;;;;9.54;73.42;101209.59;5068074;28;20210;-72
2023/05/24 03:23:42;;;;;;;6.97;2.87;;;;;;;9.56;73.61;101211.91;5055238;28;20226;-72
2023/05/24 03:26:11;;;;;;;8.57;2.77;;;;;;;9.57;73.51;101214.25;5060019;28;20203;-71
2023/05/24 03:28:39;;;;;;;9.73;2.63;;;;;;;9.58;73.39;101217.66;5063515;28;20197;-72
2023/05/24 03:31:08;;;;;;;7.30;3.20;;;;;;;9.60;73.64;101226.84;5054912;28;20227;-72
2023/05/24 03:33:36;;;;;;;5.83;2.90;;;;;;;9.61;73.97;101219.69;5055009;28;20753;-72
2023/05/24 03:36:03;;;;;;;11.03;3.63;;;;;;;9.63;74.78;101223.56;5059419;28;20207;-72
2023/05/24 03:38:30;;;;;;;8.37;2.83;;;;;;;9.65;74.18;101213.50;5036476;28;20272;-72
2023/05/24 03:40:57;;;;;;;7.33;2.83;;;;;;;9.67;73.56;101221.88;5053116;28;20313;-72
2023/05/24 03:43:24;;;;;;;14.40;3.17;;;;;;;9.68;73.77;101220.03;5034918;28;20220;-72
2023/05/24 03:45:56;;;;;;;13.50;3.80;;;;;;;9.69;73.26;101224.22;5036791;28;20235;-72
2023/05/24 03:48:23;;;;;;;7.60;2.60;;;;;;;9.72;73.72;101228.88;5033327;28;20195;-72
2023/05/24 03:50:51;;;;;;;11.73;3.37;;;;;;;9.74;72.67;101234.66;5039034;28;20218;-73
2023/05/24 03:53:17;;;;;;;5.30;2.70;;;;;;;9.74;73.11;101227.50;5032119;28;20192;-72
2023/05/24 03:55:46;;;;;;;9.00;3.07;;;;;;;9.76;72.33;101237.75;5054062;28;20203;-72
2023/05/24 03:58:12;;;;;;;8.37;2.80;;;;;;;9.77;72.98;101234.81;5038314;28;20213;-72
2023/05/24 04:00:40;;;;;;;10.67;2.63;;;;;;;9.79;73.18;101231.88;5034670;28;20235;-72
2023/05/24 04:03:07;;;;;;;7.17;2.63;;;;;;;9.81;72.71;101241.03;5048508;28;20208;-72
2023/05/24 04:05:34;;;;;;;9.97;2.97;;;;;;;9.84;72.95;101244.94;5034974;28;20204;-72
2023/05/24 04:08:01;;;;;;;10.70;2.73;;;;;;;9.83;72.31;101252.06;5053315;28;20294;-72
2023/05/24 04:10:28;;;;;;;6.13;2.50;;;;;;;9.87;72.22;101249.59;5035201;28;20208;-72
2023/05/24 04:12:55;;;;;;;11.83;3.50;;;;;;;9.91;72.44;101245.25;5033531;28;20197;-72
2023/05/24 04:15:22;;;;;;;12.70;2.80;;;;;;;9.96;71.89;101260.97;5031756;28;20197;-73
2023/05/24 04:17:54;;;;;;;11.70;2.63;;;;;;;9.99;72.28;101255.84;5038861;28;20196;-72
2023/05/24 04:20:22;;;;;;;7.83;2.90;;;;;;;10.04;72.14;101263.66;5033722;28;20692;-72
2023/05/24 04:22:49;;;;;;;9.83;2.57;;;;;;;10.10;71.63;101264.31;5051723;28;20214;-71
2023/05/24 04:25:15;;;;;;;9.47;3.20;;;;;;;10.15;71.69;101269.47;5035696;28;20544;-72
2023/05/24 04:27:43;;;;;;;13.47;2.60;;;;;;;10.18;71.78;101269.63;5057394;28;20205;-72
2023/05/24 04:30:11;;;;;;;7.47;2.53;;;;;;;10.23;71.69;101274.75;5034694;28;20242;-72
2023/05/24 04:32:39;;;;;;;9.67;2.73;;;;;;;10.29;72.77;101276.16;5035950;28;20194;-71
2023/05/24 04:35:08;;;;;;;11.17;3.00;;;;;;;10.35;71.65;101280.22;5036123;28;20207;-71
2023/05/24 04:37:34;;;;;;;11.53;2.93;;;;;;;10.37;71.36;101283.34;5049164;28;20286;-72
2023/05/24 04:40:03;;;;;;;12.43;3.23;;;;;;;10.41;71.34;101286.91;5034049;28;20201;-72
2023/05/24 04:42:31;;;;;;;15.10;3.47;;;;;;;10.41;70.74;101281.63;5050380;28;20224;-71
2023/05/24 04:44:57;;;;;;;12.93;2.90;;;;;;;10.45;70.69;101287.09;5054891;28;20193;-72
2023/05/24 04:47:24;;;;;;;8.07;2.30;;;;;;;10.45;70.59;101295.78;5050397;28;20207;-72
2023/05/24 04:49:50;;;;;;;7.17;2.30;;;;;;;10.47;70.28;101291.00;5047087;28;20282;-73
2023/05/24 04:52:21;;;;;;;11.30;2.90;;;;;;;10.47;70.39;101293.63;5048218;28;20263;-72
2023/05/24 04:54:48;;;;;;;11.33;2.97;;;;;;;10.47;69.54;101287.56;5047514;28;20199;-72
2023/05/24 04:57:15;;;;;;;10.00;2.90;;;;;;;10.45;69.65;101289.75;5048863;28;20204;-72
2023/05/24 04:59:41;;;;;;;7.53;2.70;;;;;;;10.47;70.24;101284.91;5051019;28;20210;-72
2023/05/24 05:02:08;;;;;;;11.77;3.07;;;;;;;10.48;69.77;101295.19;5048597;28;20760;-72
2023/05/24 05:04:34;;;;;;;9.17;2.97;;;;;;;10.51;70.49;101305.13;5046102;28;20749;-72
2023/05/24 05:07:02;;;;;;;7.10;2.53;;;;;;;10.56;70.60;101309.50;5046661;28;20207;-72
2023/05/24 05:09:30;;;;;;;6.23;2.70;;;;;;;10.61;70.28;101301.44;5022722;28;20218;-72
2023/05/24 05:11:57;;;;;;;11.00;3.17;;;;;;;10.68;69.81;101297.25;5031725;28;20721;-72
2023/05/24 05:14:23;;;;;;;8.00;2.23;;;;;;;10.81;69.69;101306.88;5031496;28;20227;-72
2023/05/24 05:16:51;;;;;;;8.07;2.63;;;;;;;10.91;68.66;101305.81;5046619;28;20203;-71
2023/05/24 05:19:17;;;;;;;10.77;2.60;;;;;;;10.99;69.69;101307.69;5052871;28;20203;-72
2023/05/24 05:21:43;;;;;;;10.27;3.10;;;;;;;11.08;68.32;101317.16;5047324;28;20223;-72
2023/05/24 05:24:10;;;;;;;12.27;3.67;;;;;;;11.19;67.44;101310.47;5050535;28;20658;-72
2023/05/24 05:26:37;;;;;;;8.83;2.70;;;;;;;11.29;67.30;101312.06;5050604;28;20207;-71
2023/05/24 05:29:04;;;;;;;8.70;2.63;;;;;;;11.40;67.60;101327.31;5046986;28;20208;-73
2023/05/24 05:31:30;;;;;;;10.37;3.00;;;;;;;11.44;65.80;101328.22;5044718;28;20234;-72
2023/05/24 05:33:57;;;;;;;8.33;2.57;;;;;;;11.54;67.52;101338.47;5045591;28;20190;-72
2023/05/24 05:36:23;;;;;;;9.03;3.00;;;;;;;11.61;65.81;101330.88;5059512;28;20214;-72
2023/05/24 05:38:49;;;;;;;8.27;2.53;;;;;;;11.69;65.56;101327.44;5066831;28;20213;-72
2023/05/24 05:41:16;;;;;;;12.93;3.27;;;;;;;11.76;66.18;101327.72;5065985;28;20697;-72
2023/05/24 05:43:43;;;;;;;8.07;2.50;;;;;;;11.89;66.74;101333.91;5067854;28;20224;-72
2023/05/24 05:46:12;;;;;;;7.40;2.40;;;;;;;12.00;65.53;101333.28;5068374;28;20206;-72
2023/05/24 05:48:38;;;;;;;8.10;3.20;;;;;;;12.12;65.13;101329.97;5067238;28;20196;-72
2023/05/24 05:51:04;;;;;;;9.17;2.20;;;;;;;12.22;65.32;101333.03;5068148;28;20226;-72
2023/05/24 05:53:33;;;;;;;5.67;2.20;;;;;;;12.28;65.16;101333.66;5065764;28;20198;-72
2023/05/24 05:55:59;;;;;;;6.07;2.57;;;;;;;12.30;63.85;101334.09;5065202;28;20204;-73
2023/05/24 05:58:25;;;;;;;7.40;2.43;;;;;;;12.36;63.81;101333.59;5067245;28;20211;-72
2023/05/24 06:00:53;;;;;;;8.17;2.40;;;;;;;12.45;63.10;101337.00;5063395;28;20272;-72
2023/05/24 06:03:19;;;;;;;8.70;2.90;;;;;;;12.49;62.04;101329.19;5058901;28;20200;-72
2023/05/24 06:05:46;;;;;;;7.50;2.57;;;;;;;12.46;63.33;101333.25;5067708;28;20220;-72
2023/05/24 06:08:12;;;;;;;7.83;2.67;;;;;;;12.52;65.18;101339.16;5060283;28;20208;-72
2023/05/24 06:10:39;;;;;;;7.03;2.37;;;;;;;12.54;62.66;101335.09;5065400;28;20237;-71
2023/05/24 06:13:05;;;;;;;6.87;2.27;;;;;;;12.56;63.41;101340.84;5061935;28;20196;-72
2023/05/24 06:15:33;;;;;;;10.77;2.87;;;;;;;12.56;62.00;101340.03;5066097;28;20200;-73
2023/05/24 06:18:01;;;;;;;9.80;2.90;;;;;;;12.51;63.15;101343.66;5064315;28;20535;-72
2023/05/24 06:20:27;;;;;;;9.77;2.80;;;;;;;12.53;63.22;101346.75;5072877;28;20224;-73
2023/05/24 06:22:54;;;;;;;8.00;2.20;;;;;;;12.50;61.77;101351.94;5067240;28;20228;-72
2023/05/24 06:25:22;;;;;;;11.17;3.00;;;;;;;12.50;61.45;101354.56;5069557;28;20221;-72
2023/05/24 06:27:48;;;;;;;8.27;2.60;;;;;;;12.45;62.86;101354.75;5067520;28;20202;-72
2023/05/24 06:30:15;;;;;;;9.70;2.67;;;;;;;12.47;63.49;101353.34;5061602;28;20198;-72
2023/05/24 06:32:41;;;;;;;10.20;2.83;;;;;;;12.46;62.33;101357.09;5048987;28;20212;-72
2023/05/24 06:35:10;;;;;;;8.17;2.60;;;;;;;12.44;62.23;101359.28;5050060;28;20621;-72
2023/05/24 06:37:37;;;;;;;9.50;2.77;;;;;;;12.43;62.65;101354.31;5066552;28;20218;-72
2023/05/24 06:40:05;;;;;;;7.50;2.57;;;;;;;12.47;63.02;101352.56;5069724;28;20664;-72
2023/05/24 06:42:34;;;;;;;6.10;2.77;;;;;;;12.41;61.54;101359.13;5062482;28;20469;-73
2023/05/24 06:45:00;;;;;;;11.67;2.80;;;;;;;12.44;63.11;101366.44;5060655;28;20309;-73
2023/05/24 06:47:26;;;;;;;8.17;2.73;;;;;;;12.38;62.06;101360.53;5049956;28;20199;-72
2023/05/24 06:49:53;;;;;;;11.13;2.63;;;;;;;12.37;61.63;101368.81;5067969;28;20200;-72
2023/05/24 06:52:21;;;;;;;6.93;2.53;;;;;;;12.40;63.39;101371.59;5068628;28;20219;-72
2023/05/24 06:54:47;;;;;;;11.83;2.53;;;;;;;12.44;64.17;101377.03;5058302;28;20209;-71
2023/05/24 06:57:14;;;;;;;11.00;2.53;;;;;;;12.37;61.97;101382.81;5063971;28;20202;-72
2023/05/24 06:59:40;;;;;;;12.17;3.03;;;;;;;12.42;63.49;101381.88;5065656;28;20284;-72
2023/05/24 07:02:08;;;;;;;6.07;2.37;;;;;;;12.38;62.25;101389.66;5066424;28;20259;-72
2023/05/24 07:04:35;;;;;;;7.03;2.57;;;;;;;12.33;60.61;101394.38;5068507;28;20218;-73
2023/05/24 07:07:01;;;;;;;7.57;2.40;;;;;;;12.34;61.64;101401.22;5064863;28;20282;-72
2023/05/24 07:09:29;;;;;;;8.30;2.33;;;;;;;12.35;62.10;101397.47;5056782;28;20228;-72
2023/05/24 07:11:56;;;;;;;6.80;2.63;;;;;;;12.33;61.56;101394.38;5068392;28;20224;-72
2023/05/24 07:14:24;;;;;;;9.20;2.70;;;;;;;12.30;61.86;101400.31;5070494;28;20769;-72
2023/05/24 07:16:51;;;;;;;10.20;2.77;;;;;;;12.34;61.62;101402.00;5066920;28;20700;-72
2023/05/24 07:19:17;;;;;;;7.23;2.83;;;;;;;12.40;61.59;101402.59;5062717;28;20261;-71
2023/05/24 07:21:43;;;;;;;9.67;2.70;;;;;;;12.45;62.50;101394.47;5068405;28;20227;-72
2023/05/24 07:24:10;;;;;;;8.63;2.40;;;;;;;12.42;61.64;101395.13;5068520;28;20295;-71
2023/05/24 07:26:38;;;;;;;8.97;2.60;;;;;;;12.49;63.56;101403.34;5071224;28;20211;-72
2023/05/24 07:29:04;;;;;;;8.17;2.53;;;;;;;12.51;61.74;101391.34;5068800;28;20649;-72
2023/05/24 07:31:33;;;;;;;6.80;3.07;;;;;;;12.61;62.91;101406.09;5069513;28;20218;-72
2023/05/24 07:33:59;;;;;;;8.67;3.13;;;;;;;12.66;62.29;101406.72;5052250;28;20194;-72
2023/05/24 07:36:28;;;;;;;4.83;2.10;;;;;;;12.74;61.98;101415.72;5069994;28;20217;-72
2023/05/24 07:38:54;;;;;;;8.80;2.80;;;;;;;12.76;62.69;101410.88;5063308;28;20310;-72
2023/05/24 07:41:25;;;;;;;9.60;2.77;;;;;;;12.80;60.43;101419.75;5067582;28;20227;-72
2023/05/24 07:43:55;;;;;;;10.80;2.33;;;;;;;12.86;64.58;101424.56;5066137;28;20295;-72
2023/05/24 07:46:22;;;;;;;12.17;2.33;;;;;;;12.80;59.42;101420.53;5066591;28;20205;-72
2023/05/24 07:48:48;;;;;;;9.40;2.47;;;;;;;12.83;60.75;101421.75;5064015;28;20575;-72
2023/05/24 07:51:15;;;;;;;8.57;2.77;;;;;;;12.87;60.53;101423.44;5060066;28;20227;-72
2023/05/24 07:53:41;;;;;;;10.50;2.93;;;;;;;12.90;60.60;101427.34;5070115;28;20201;-72
2023/05/24 07:56:08;;;;;;;10.70;2.53;;;;;;;12.96;60.17;101424.22;5072968;28;20220;-72
2023/05/24 07:58:35;;;;;;;11.03;2.67;;;;;;;13.00;60.51;101427.00;5069067;28;20806;-72
2023/05/24 08:01:02;;;;;;;9.90;2.70;;;;;;;13.02;60.74;101425.59;5070594;28;20231;-72
2023/05/24 08:03:29;;;;;;;9.30;2.73;;;;;;;13.12;60.89;101421.78;5068348;28;20211;-72
2023/05/24 08:05:55;;;;;;;8.17;2.80;;;;;;;13.21;61.34;101425.16;5066918;28;20691;-72
2023/05/24 08:08:22;;;;;;;7.80;2.53;;;;;;;13.28;60.61;101433.38;5065050;28;20259;-71
2023/05/24 08:10:48;;;;;;;8.23;2.33;;;;;;;13.30;59.38;101434.59;5072004;28;20225;-72
2023/05/24 08:13:15;;;;;;;10.43;2.10;;;;;;;13.36;59.63;101440.50;5071096;28;20205;-73
2023/05/24 08:15:41;;;;;;;7.57;2.50;;;;;;;13.35;58.60;101436.31;5062183;28;20259;-72
2023/05/24 08:18:09;;;;;;;6.53;2.30;;;;;;;13.33;57.89;101430.53;5073830;28;20558;-72
2023/05/24 08:20:36;;;;;;;9.37;2.93;;;;;;;13.28;57.66;101434.16;5061278;28;20725;-72
2023/05/24 08:23:02;;;;;;;9.73;3.40;;;;;;;13.29;57.76;101433.06;5065670;28;20301;-72
2023/05/24 08:25:29;;;;;;;7.73;3.10;;;;;;;13.38;58.43;101428.47;5071431;28;20742;-71
2023/05/24 08:27:56;;;;;;;11.50;3.00;;;;;;;13.45;58.66;101441.22;5066670;28;20201;-72
2023/05/24 08:30:22;;;;;;;9.03;2.40;;;;;;;13.47;58.21;101434.50;5070005;28;20191;-72
2023/05/24 08:32:48;;;;;;;9.67;2.87;;;;;;;13.58;59.36;101434.88;5044761;28;20211;-72
2023/05/24 08:35:16;;;;;;;10.30;3.10;;;;;;;13.62;59.40;101446.41;5061079;28;20199;-72
2023/05/24 08:37:43;;;;;;;10.90;2.83;;;;;;;13.69;58.36;101434.16;5064555;28;20191;-72
2023/05/24 08:40:09;;;;;;;8.97;3.40;;;;;;;13.73;57.89;101442.25;5068438;28;20915;-71
2023/05/24 08:42:39;;;;;;;14.30;3.40;;;;;;;13.72;57.79;101454.72;5070264;28;20356;-71
2023/05/24 08:45:09;;;;;;;10.73;4.40;;;;;;;13.72;57.71;101446.78;5066320;28;20225;-72
2023/05/24 08:47:36;;;;;;;9.17;3.20;;;;;;;13.79;57.32;101452.34;5040841;28;20215;-71
2023/05/24 08:50:03;;;;;;;9.27;3.23;;;;;;;13.81;57.02;101450.13;5063413;28;20201;-72
2023/05/24 08:52:31;;;;;;;5.27;2.40;;;;;;;13.82;57.00;101449.03;5064682;28;20215;-72
2023/05/24 08:54:58;;;;;;;8.80;2.43;;;;;;;13.84;57.88;101454.03;5064419;28;20583;-72
2023/05/24 08:57:26;;;;;;;7.47;2.83;;;;;;;13.77;56.72;101449.22;5067712;28;20754;-72
2023/05/24 08:59:54;;;;;;;8.07;2.80;;;;;;;13.76;57.17;101453.00;5067140;28;20226;-72
2023/05/24 09:02:21;;;;;;;7.17;2.40;;;;;;;13.68;55.41;101450.41;5062099;28;20685;-72
2023/05/24 09:04:49;;;;;;;7.67;3.00;;;;;;;13.72;56.56;101453.97;5068304;28;20212;-72
2023/05/24 09:07:18;;;;;;;6.80;3.13;;;;;;;13.73;56.73;101453.66;5062928;28;20212;-72
2023/05/24 09:09:53;;;;;;;12.03;2.60;;;;;;;13.73;57.20;101464.28;5068177;28;20203;-72
2023/05/24 09:12:21;;;;;;;7.80;2.60;;;;;;;13.76;57.31;101455.66;5061835;28;20235;-72
2023/05/24 09:14:47;;;;;;;7.47;2.73;;;;;;;13.75;56.71;101462.06;5065643;28;20740;-71
2023/05/24 09:17:14;;;;;;;2.17;1.83;;;;;;;13.75;57.52;101456.75;5045705;28;20196;-72
2023/05/24 09:19:44;;;;;;;7.07;2.63;;;;;;;13.75;56.34;101467.38;5069769;28;20198;-73
2023/05/24 09:22:12;;;;;;;4.83;2.17;;;;;;;13.73;56.75;101466.13;5064418;28;20231;-72
2023/05/24 09:24:41;;;;;;;8.60;2.53;;;;;;;13.80;56.74;101471.69;5071351;28;20561;-71
2023/05/24 09:27:09;;;;;;;6.47;2.27;;;;;;;13.80;55.61;101469.81;5064528;28;20208;-72
2023/05/24 09:29:36;;;;;;;10.77;2.47;;;;;;;13.79;55.86;101478.09;5067356;28;20278;-72
2023/05/24 09:32:03;;;;;;;4.73;1.93;;;;;;;13.76;55.25;101474.22;5070006;28;20305;-72
2023/05/24 09:34:29;;;;;;;6.63;2.80;;;;;;;13.76;56.09;101486.75;5061459;28;20196;-72
2023/05/24 09:36:56;;;;;;;10.50;2.53;;;;;;;13.78;58.95;101484.53;5058163;28;20563;-73
2023/05/24 09:39:22;;;;;;;10.17;2.50;;;;;;;13.72;56.94;101489.25;5064032;28;20669;-73
2023/05/24 09:41:55;;;;;;;8.83;2.57;;;;;;;13.65;56.00;101481.03;5063573;28;20223;-72
2023/05/24 09:44:26;;;;;;;7.87;2.27;;;;;;;13.61;56.47;101482.00;5060137;28;20199;-72
2023/05/24 09:46:53;;;;;;;6.43;2.53;;;;;;;13.53;56.38;101482.84;5067530;28;20273;-72
2023/05/24 09:49:21;;;;;;;6.97;1.83;;;;;;;13.46;55.67;101482.56;5069984;28;20203;-72
2023/05/24 09:51:47;;;;;;;6.93;2.03;;;;;;;13.50;56.72;101478.19;5066073;28;20218;-72
2023/05/24 09:54:14;;;;;;;9.47;2.10;;;;;;;13.48;56.26;101486.47;5063069;28;20674;-72
2023/05/24 09:56:41;;;;;;;4.73;1.93;;;;;;;13.49;56.84;101487.22;5060967;28;20201;-72
2023/05/24 09:59:09;;;;;;;8.37;2.40;;;;;;;13.42;56.08;101492.28;5065881;28;20272;-72
2023/05/24 10:01:36;;;;;;;8.60;2.27;;;;;;;13.45;57.04;101497.72;5060282;28;20223;-71
2023/05/24 10:04:05;;;;;;;5.23;2.30;;;;;;;13.48;57.96;101498.94;5065100;28;20634;-71
2023/05/24 10:06:36;;;;;;;10.63;3.03;;;;;;;13.51;56.14;101493.75;5070695;28;20634;-72
2023/05/24 10:09:03;;;;;;;5.83;2.53;;;;;;;13.55;56.82;101499.22;5067881;28;20204;-72
2023/05/24 10:11:31;;;;;;;6.93;2.67;;;;;;;13.60;56.54;101497.13;5064839;28;20898;-72
2023/05/24 10:13:59;;;;;;;6.87;2.30;;;;;;;13.63;55.64;101495.72;5065360;28;20198;-71
2023/05/24 10:16:25;;;;;;;7.30;2.33;;;;;;;13.69;55.11;101499.72;5065874;28;20190;-72
2023/05/24 10:18:53;;;;;;;7.40;2.77;;;;;;;13.78;55.90;101492.50;5047971;28;20210;-71
2023/05/24 10:21:23;;;;;;;9.30;2.43;;;;;;;13.85;55.33;101493.53;5058440;28;20284;-72
2023/05/24 10:23:56;;;;;;;8.07;2.37;;;;;;;13.93;56.24;101491.91;5049978;28;20307;-71
2023/05/24 10:26:25;;;;;;;6.33;2.07;;;;;;;14.00;54.37;101494.78;5063170;28;20225;-72
2023/05/24 10:28:55;;;;;;;10.10;2.63;;;;;;;14.12;56.00;101498.28;5063055;28;20203;-72
2023/05/24 10:31:25;;;;;;;10.00;2.37;;;;;;;14.22;54.95;101497.91;5067906;28;20577;-72
2023/05/24 10:33:56;;;;;;;5.27;2.40;;;;;;;14.35;54.81;101499.50;5065900;28;20289;-72
2023/05/24 10:36:26;;;;;;;8.03;2.50;;;;;;;14.42;54.63;101507.72;5067517;28;20206;-72
2023/05/24 10:38:53;;;;;;;7.93;2.60;;;;;;;14.48;55.42;101519.69;5066730;28;20206;-72
2023/05/24 10:41:21;;;;;;;10.47;2.90;;;;;;;14.52;54.17;101519.81;5067822;28;20225;-72
2023/05/24 10:43:50;;;;;;;5.00;2.23;;;;;;;14.51;55.90;101511.06;5066586;28;20230;-74
2023/05/24 10:46:17;;;;;;;10.13;2.27;;;;;;;14.54;57.80;101512.28;5063941;28;20195;-72
2023/05/24 10:48:43;;;;;;;6.57;2.53;;;;;;;14.60;54.97;101510.97;5067111;28;20210;-72
2023/05/24 10:51:38;;;;;;;7.30;2.30;;;;;;;14.54;52.33;101512.28;5067008;28;20228;-72
2023/05/24 10:54:15;;;;;;;5.70;2.23;;;;;;;14.59;53.47;101504.13;5066369;28;20278;-69
2023/05/24 10:56:42;;;;;;;7.70;2.60;;;;;;;14.55;52.72;101508.53;5068702;28;20202;-72
2023/05/24 10:59:08;;;;;;;7.70;2.63;;;;;;;14.59;53.04;101515.50;5063721;28;20210;-73
2023/05/24 11:01:36;;;;;;;10.30;2.40;;;;;;;14.72;52.94;101508.34;5068892;28;20780;-70
2023/05/24 11:04:07;;;;;;;5.87;2.50;;;;;;;14.76;52.80;101512.66;5063707;28;20295;-70
2023/05/24 11:06:54;;;;;;;7.87;2.83;;;;;;;14.85;52.03;101515.22;5074433;28;20463;-71
2023/05/24 11:09:22;;;;;;;6.87;2.50;;;;;;;14.93;53.16;101514.34;5074709;28;20256;-70
2023/05/24 11:11:49;;;;;;;8.17;2.60;;;;;;;14.96;53.00;101519.75;5068680;28;20236;-73
2023/05/24 11:14:19;;;;;;;5.23;2.37;;;;;;;14.98;52.98;101516.78;5072809;28;20194;-69
2023/05/24 11:16:48;;;;;;;3.80;2.30;;;;;;;14.97;52.89;101515.22;5065216;28;20213;-70
2023/05/24 11:19:18;;;;;;;7.20;2.47;;;;;;;15.00;52.25;101522.56;5069572;28;20198;-69
2023/05/24 11:21:49;;;;;;;5.87;2.40;;;;;;;14.95;52.25;101514.81;5068653;28;20626;-70
2023/05/24 11:24:17;;;;;;;7.10;2.60;;;;;;;15.04;53.10;101510.13;5062067;28;20216;-69
2023/05/24 11:26:44;;;;;;;5.40;2.30;;;;;;;15.07;52.49;101520.88;5064839;28;20206;-70
2023/05/24 11:29:16;;;;;;;5.27;2.47;;;;;;;15.05;51.18;101509.81;5067755;28;20225;-69